Time;durP1;ratioP1;P1;durP2;ratioP2;P2;SDS_P1;SDS_P2;PMS_P1;PMS_P2;Temp;Humidity;BMP_temperature;BMP_pressure;BME280_temperature;BME280_humidity;BME280_pressure;Samples;Min_cycle;Max_cycle;Signal;HPM_P1;HPM_P2
2020/12/22 00:02:13;;;;;;;16.55;8.48;;;6.60;99.90;;;;;;5067202;28;20534;-86
2020/12/22 00:04:38;;;;;;;16.33;8.35;;;6.60;99.90;;;;;;5060622;28;20650;-88
2020/12/22 00:07:04;;;;;;;18.25;8.73;;;6.60;99.90;;;;;;5056785;28;20034;-85
2020/12/22 00:09:29;;;;;;;16.08;8.80;;;6.60;99.90;;;;;;5053302;28;20507;-85
2020/12/22 00:11:55;;;;;;;16.52;8.82;;;6.60;99.90;;;;;;5055819;28;20016;-85
2020/12/22 00:14:21;;;;;;;16.98;8.88;;;6.60;99.90;;;;;;5057850;28;20025;-86
2020/12/22 00:16:46;;;;;;;15.63;8.88;;;6.60;99.90;;;;;;5060238;28;20020;-86
2020/12/22 00:19:12;;;;;;;17.63;9.30;;;6.60;99.90;;;;;;5058232;28;20041;-86
2020/12/22 00:21:38;;;;;;;19.40;9.60;;;6.60;99.90;;;;;;5053873;28;20328;-86
2020/12/22 00:24:03;;;;;;;16.02;8.95;;;6.70;99.90;;;;;;5060738;28;20017;-86
2020/12/22 00:26:29;;;;;;;16.42;9.13;;;6.70;99.90;;;;;;5049644;28;20037;-87
2020/12/22 00:28:55;;;;;;;20.45;9.10;;;6.70;99.90;;;;;;5055721;28;20036;-86
2020/12/22 00:31:20;;;;;;;17.13;8.63;;;6.70;99.90;;;;;;5059834;28;20032;-85
2020/12/22 00:33:46;;;;;;;20.35;10.25;;;6.70;99.90;;;;;;5059346;28;20104;-85
2020/12/22 00:36:12;;;;;;;19.42;9.70;;;6.70;99.90;;;;;;5063153;28;20044;-85
2020/12/22 00:38:37;;;;;;;19.02;9.65;;;6.80;99.90;;;;;;5063606;28;20387;-85
2020/12/22 00:41:03;;;;;;;19.08;9.73;;;6.70;99.90;;;;;;5053017;28;20051;-86
2020/12/22 00:43:28;;;;;;;19.83;9.73;;;6.80;99.90;;;;;;5051521;28;20033;-86
2020/12/22 00:45:54;;;;;;;20.52;9.23;;;6.70;99.90;;;;;;5067409;28;20137;-86
2020/12/22 00:48:20;;;;;;;20.25;9.75;;;6.80;99.90;;;;;;5050140;28;20099;-86
2020/12/22 00:50:45;;;;;;;18.15;9.65;;;6.80;99.90;;;;;;5058157;28;20049;-87
2020/12/22 00:53:11;;;;;;;19.40;9.60;;;6.80;99.90;;;;;;5055354;28;20115;-86
2020/12/22 00:55:36;;;;;;;18.20;9.68;;;6.80;99.90;;;;;;5055915;28;20032;-86
2020/12/22 00:58:01;;;;;;;19.70;9.70;;;6.80;99.90;;;;;;5060635;28;20450;-85
2020/12/22 01:00:27;;;;;;;21.05;10.15;;;6.80;99.90;;;;;;5061333;28;20024;-85
2020/12/22 01:02:52;;;;;;;19.63;9.30;;;6.90;99.90;;;;;;5065231;28;20070;-85
2020/12/22 01:05:18;;;;;;;16.75;9.50;;;6.90;99.90;;;;;;5054911;28;20230;-86
2020/12/22 01:07:43;;;;;;;22.10;9.88;;;6.90;99.90;;;;;;5050450;28;20432;-85
2020/12/22 01:10:09;;;;;;;21.25;9.57;;;6.90;99.90;;;;;;5049683;28;20025;-85
2020/12/22 01:12:34;;;;;;;20.05;9.80;;;6.90;99.90;;;;;;5052359;28;20029;-85
2020/12/22 01:15:00;;;;;;;18.48;10.02;;;6.90;99.90;;;;;;5059087;28;20021;-85
2020/12/22 01:17:25;;;;;;;17.92;9.80;;;7.00;99.90;;;;;;5052853;28;20513;-86
2020/12/22 01:19:53;;;;;;;17.10;10.00;;;7.00;99.90;;;;;;5059390;28;20037;-85
2020/12/22 01:22:18;;;;;;;20.63;10.10;;;7.00;99.90;;;;;;5059218;28;20032;-85
2020/12/22 01:24:44;;;;;;;16.92;9.65;;;7.00;99.90;;;;;;5057839;28;20380;-85
2020/12/22 01:27:09;;;;;;;23.05;10.88;;;7.10;99.90;;;;;;5063364;28;20115;-85
2020/12/22 01:29:35;;;;;;;17.45;9.65;;;7.10;99.90;;;;;;5063700;28;20069;-84
2020/12/22 01:32:00;;;;;;;18.27;9.52;;;7.00;99.90;;;;;;5048582;28;20013;-85
2020/12/22 01:34:26;;;;;;;19.08;9.63;;;7.00;99.90;;;;;;5059529;28;20028;-84
2020/12/22 01:36:51;;;;;;;19.52;10.35;;;7.10;99.90;;;;;;5060300;28;20028;-85
2020/12/22 01:39:17;;;;;;;19.13;9.88;;;7.10;99.90;;;;;;5054418;28;20044;-86
2020/12/22 01:41:43;;;;;;;17.13;9.43;;;7.10;99.90;;;;;;5057437;28;20509;-85
2020/12/22 01:44:11;;;;;;;17.92;9.63;;;7.10;99.90;;;;;;5057265;28;20166;-85
2020/12/22 01:46:45;;;;;;;18.40;9.95;;;7.10;99.90;;;;;;5062029;28;20149;-85
2020/12/22 01:49:23;;;;;;;18.75;9.30;;;7.10;99.90;;;;;;5055636;28;20027;-85
2020/12/22 01:51:53;;;;;;;18.45;9.82;;;7.20;99.90;;;;;;5059849;28;20597;-85
2020/12/22 01:54:19;;;;;;;18.63;9.70;;;7.10;99.90;;;;;;5060670;28;20107;-85
2020/12/22 01:56:46;;;;;;;20.70;9.88;;;7.20;99.90;;;;;;5057010;28;20117;-85
2020/12/22 01:59:12;;;;;;;18.58;10.07;;;7.20;99.90;;;;;;5065569;28;20047;-87
2020/12/22 02:01:38;;;;;;;18.83;9.77;;;7.20;99.90;;;;;;5052369;28;20053;-85
2020/12/22 02:04:06;;;;;;;19.20;10.10;;;7.30;99.90;;;;;;5059739;28;20098;-85
2020/12/22 02:06:33;;;;;;;21.00;10.27;;;7.30;99.90;;;;;;5052975;28;20033;-86
2020/12/22 02:09:00;;;;;;;17.10;9.63;;;7.30;99.90;;;;;;5055064;28;20082;-85
2020/12/22 02:11:28;;;;;;;18.60;9.55;;;7.30;99.90;;;;;;5070095;28;20048;-85
2020/12/22 02:13:54;;;;;;;19.05;10.32;;;7.30;99.90;;;;;;5062903;28;20033;-85
2020/12/22 02:16:20;;;;;;;17.38;9.82;;;7.30;99.90;;;;;;5064687;28;20163;-85
2020/12/22 02:18:47;;;;;;;18.95;10.10;;;7.30;99.90;;;;;;5063638;28;20123;-84
2020/12/22 02:21:13;;;;;;;23.55;10.85;;;7.30;99.90;;;;;;5054193;28;20032;-85
2020/12/22 02:23:39;;;;;;;19.88;10.32;;;7.30;99.90;;;;;;5056885;28;20064;-86
2020/12/22 02:26:04;;;;;;;19.30;9.98;;;7.20;99.90;;;;;;5058655;28;20069;-85
2020/12/22 02:28:30;;;;;;;18.58;10.45;;;7.30;99.90;;;;;;5060537;28;20039;-84
2020/12/22 02:30:55;;;;;;;19.10;10.10;;;7.20;99.90;;;;;;5064655;28;20118;-85
2020/12/22 02:33:21;;;;;;;19.45;10.27;;;7.30;99.90;;;;;;5054763;28;20021;-85
2020/12/22 02:35:46;;;;;;;19.25;9.80;;;7.20;99.90;;;;;;5065764;28;20111;-84
2020/12/22 02:38:12;;;;;;;19.42;10.15;;;7.20;99.90;;;;;;5059909;28;20542;-85
2020/12/22 02:40:37;;;;;;;19.95;10.50;;;7.20;99.90;;;;;;5066443;28;20070;-83
2020/12/22 02:43:10;;;;;;;18.17;9.70;;;7.20;99.90;;;;;;5066273;28;20025;-86
2020/12/22 02:45:37;;;;;;;17.15;9.90;;;7.20;99.90;;;;;;5055686;28;20055;-84
2020/12/22 02:48:03;;;;;;;21.50;10.82;;;7.20;99.90;;;;;;5055249;28;20040;-85
2020/12/22 02:50:29;;;;;;;19.98;10.90;;;7.20;99.90;;;;;;5054497;28;20395;-84
2020/12/22 02:52:54;;;;;;;17.58;10.25;;;7.20;99.90;;;;;;5065706;28;20052;-84
2020/12/22 02:55:19;;;;;;;21.60;10.55;;;7.20;99.90;;;;;;5064995;28;20075;-84
2020/12/22 02:57:45;;;;;;;18.42;10.23;;;7.20;99.90;;;;;;5069831;28;20021;-84
2020/12/22 03:00:11;;;;;;;17.73;10.23;;;7.30;99.90;;;;;;5063691;28;20029;-85
2020/12/22 03:02:36;;;;;;;19.58;10.38;;;7.30;99.90;;;;;;5062659;28;20039;-84
2020/12/22 03:05:02;;;;;;;23.33;10.48;;;7.30;99.90;;;;;;5056308;28;20029;-84
2020/12/22 03:07:27;;;;;;;18.75;10.57;;;7.30;99.90;;;;;;5059853;28;20115;-84
2020/12/22 03:09:53;;;;;;;20.10;10.27;;;7.30;99.90;;;;;;5066407;28;20029;-85
2020/12/22 03:12:18;;;;;;;19.33;10.70;;;7.20;99.90;;;;;;5055340;28;20549;-85
2020/12/22 03:14:44;;;;;;;19.70;10.40;;;7.20;99.90;;;;;;5058922;28;20032;-85
2020/12/22 03:17:09;;;;;;;21.55;11.00;;;7.30;99.90;;;;;;5061503;28;20055;-85
2020/12/22 03:19:37;;;;;;;23.40;10.80;;;7.20;99.90;;;;;;5050863;28;20510;-85
2020/12/22 03:22:04;;;;;;;21.40;10.52;;;7.20;99.90;;;;;;5059065;28;20487;-85
2020/12/22 03:24:29;;;;;;;19.77;10.13;;;7.20;99.90;;;;;;5066981;28;20487;-85
2020/12/22 03:26:54;;;;;;;21.45;10.80;;;7.20;99.90;;;;;;5059938;28;20063;-85
2020/12/22 03:29:20;;;;;;;21.42;10.48;;;7.20;99.90;;;;;;5060568;28;20478;-84
2020/12/22 03:31:45;;;;;;;22.17;11.10;;;7.20;99.90;;;;;;5062557;28;20031;-85
2020/12/22 03:34:11;;;;;;;23.17;11.40;;;7.20;99.90;;;;;;5060741;28;20099;-84
2020/12/22 03:36:36;;;;;;;19.05;10.15;;;7.30;99.90;;;;;;5064957;28;20027;-85
2020/12/22 03:39:02;;;;;;;19.38;10.00;;;7.30;99.90;;;;;;5062193;28;20498;-84
2020/12/22 03:41:27;;;;;;;22.85;10.65;;;7.30;99.90;;;;;;5054125;28;20037;-84
2020/12/22 03:43:54;;;;;;;19.55;10.32;;;7.30;99.90;;;;;;5061808;28;20112;-83
2020/12/22 03:46:19;;;;;;;19.95;10.27;;;7.30;99.90;;;;;;5053353;28;20033;-83
2020/12/22 03:48:45;;;;;;;21.05;10.20;;;7.30;99.90;;;;;;5060625;28;20112;-84
2020/12/22 03:51:11;;;;;;;22.52;10.90;;;7.40;99.90;;;;;;5067139;28;20027;-86
2020/12/22 03:53:36;;;;;;;21.10;11.07;;;7.40;99.90;;;;;;5051667;28;20037;-84
2020/12/22 03:56:02;;;;;;;21.05;10.27;;;7.30;99.90;;;;;;5058622;28;20131;-84
2020/12/22 03:58:27;;;;;;;19.08;10.30;;;7.40;99.90;;;;;;5064603;28;20035;-85
2020/12/22 04:00:53;;;;;;;22.42;9.65;;;7.40;99.90;;;;;;5057951;28;20083;-84
2020/12/22 04:03:18;;;;;;;19.13;10.10;;;7.40;99.90;;;;;;5053290;28;20033;-84
2020/12/22 04:05:44;;;;;;;20.13;10.18;;;7.40;99.90;;;;;;5055840;28;20055;-85
2020/12/22 04:08:09;;;;;;;18.73;9.57;;;7.40;99.90;;;;;;5060438;28;20024;-85
2020/12/22 04:10:35;;;;;;;18.75;9.38;;;7.50;99.90;;;;;;5054655;28;20028;-85
2020/12/22 04:13:00;;;;;;;19.92;9.93;;;7.50;99.90;;;;;;5063413;28;20020;-83
2020/12/22 04:15:26;;;;;;;19.33;9.63;;;7.40;99.90;;;;;;5061002;28;20116;-80
2020/12/22 04:17:51;;;;;;;19.25;9.52;;;7.40;99.90;;;;;;5059074;28;20031;-82
2020/12/22 04:20:17;;;;;;;17.75;9.30;;;7.50;99.90;;;;;;5056175;28;20376;-83
2020/12/22 04:22:42;;;;;;;18.25;9.27;;;7.50;99.90;;;;;;5062585;28;20091;-84
2020/12/22 04:25:07;;;;;;;15.23;8.85;;;7.50;99.90;;;;;;5049907;28;20059;-82
2020/12/22 04:27:33;;;;;;;16.40;8.07;;;7.50;99.90;;;;;;5064399;28;20039;-84
2020/12/22 04:29:59;;;;;;;18.95;9.25;;;7.50;99.90;;;;;;5050781;28;20071;-81
2020/12/22 04:32:24;;;;;;;16.92;9.32;;;7.50;99.90;;;;;;5058198;28;20056;-80
2020/12/22 04:34:51;;;;;;;17.40;9.10;;;7.60;99.90;;;;;;5065347;28;20027;-81
2020/12/22 04:37:17;;;;;;;15.43;9.07;;;7.50;99.90;;;;;;5058803;28;20032;-81
2020/12/22 04:39:42;;;;;;;21.63;9.27;;;7.60;99.90;;;;;;5052243;28;20031;-82
2020/12/22 04:42:09;;;;;;;17.13;8.73;;;7.60;99.90;;;;;;5059909;28;20127;-82
2020/12/22 04:44:34;;;;;;;16.40;8.23;;;7.70;99.90;;;;;;5061939;28;20029;-86
2020/12/22 04:47:03;;;;;;;16.02;8.25;;;7.60;99.90;;;;;;5064267;28;20024;-85
2020/12/22 04:49:31;;;;;;;15.82;8.70;;;7.70;99.90;;;;;;5062558;28;20475;-86
2020/12/22 04:51:58;;;;;;;14.23;8.07;;;7.70;99.90;;;;;;5057024;28;20159;-85
2020/12/22 04:54:24;;;;;;;14.43;8.40;;;7.70;99.90;;;;;;5051046;28;20032;-85
2020/12/22 04:56:50;;;;;;;15.32;7.95;;;7.70;99.90;;;;;;5047655;28;20029;-85
2020/12/22 04:59:16;;;;;;;12.65;7.65;;;7.80;99.90;;;;;;5053513;28;20029;-85
2020/12/22 05:01:42;;;;;;;14.68;7.97;;;7.70;99.90;;;;;;5043359;28;20048;-85
2020/12/22 05:04:14;;;;;;;15.85;8.30;;;7.80;99.90;;;;;;5051663;28;20376;-86
2020/12/22 05:06:40;;;;;;;17.65;8.52;;;7.80;99.90;;;;;;5057397;28;20047;-86
2020/12/22 05:09:06;;;;;;;14.85;7.80;;;7.80;99.90;;;;;;5047379;28;20163;-87
2020/12/22 05:11:36;;;;;;;14.93;8.23;;;7.80;99.90;;;;;;5046693;28;20055;-86
2020/12/22 05:14:02;;;;;;;16.02;8.23;;;7.90;99.90;;;;;;5060734;28;20100;-86
2020/12/22 05:16:28;;;;;;;17.45;8.52;;;7.90;99.90;;;;;;5062164;28;20126;-86
2020/12/22 05:18:55;;;;;;;14.05;8.50;;;7.90;99.90;;;;;;5042415;28;20479;-86
2020/12/22 05:21:21;;;;;;;14.77;8.13;;;8.00;99.90;;;;;;5050698;28;20218;-85
2020/12/22 05:23:50;;;;;;;15.77;8.30;;;8.00;99.90;;;;;;5043993;28;20036;-85
2020/12/22 05:26:19;;;;;;;15.00;8.07;;;8.00;99.90;;;;;;5041101;28;20044;-86
2020/12/22 05:28:45;;;;;;;13.98;7.97;;;8.00;99.90;;;;;;5057647;28;20047;-85
2020/12/22 05:31:16;;;;;;;14.45;8.00;;;8.00;99.90;;;;;;5048946;28;20367;-85
2020/12/22 05:33:43;;;;;;;14.63;7.72;;;8.00;99.90;;;;;;5051816;28;20025;-85
2020/12/22 05:36:09;;;;;;;15.32;8.25;;;8.00;99.90;;;;;;5054572;28;20036;-86
2020/12/22 05:38:36;;;;;;;15.35;7.75;;;8.00;99.90;;;;;;5046066;28;20594;-86
2020/12/22 05:41:04;;;;;;;15.77;7.90;;;8.00;99.90;;;;;;5047195;28;20041;-86
2020/12/22 05:43:39;;;;;;;13.55;6.78;;;8.00;99.90;;;;;;5044727;28;20091;-86
2020/12/22 05:46:05;;;;;;;12.93;7.38;;;8.00;99.90;;;;;;5050392;28;20039;-86
2020/12/22 05:48:31;;;;;;;15.82;7.88;;;8.10;99.90;;;;;;5053791;28;20017;-86
2020/12/22 05:51:01;;;;;;;13.77;7.53;;;8.20;99.90;;;;;;5055937;28;20078;-86
2020/12/22 05:53:28;;;;;;;13.20;7.07;;;8.20;99.90;;;;;;5051825;28;20029;-85
2020/12/22 05:55:53;;;;;;;13.13;7.00;;;8.20;99.90;;;;;;5045064;28;20033;-85
2020/12/22 05:58:19;;;;;;;11.55;6.60;;;8.20;99.90;;;;;;5049548;28;20032;-86
2020/12/22 06:00:45;;;;;;;13.95;7.13;;;8.20;99.90;;;;;;5058020;28;20695;-85
2020/12/22 06:03:12;;;;;;;12.35;6.80;;;8.20;99.90;;;;;;5062644;28;20029;-85
2020/12/22 06:05:47;;;;;;;12.85;7.25;;;8.20;99.90;;;;;;5055789;28;20037;-84
2020/12/22 06:08:16;;;;;;;11.90;6.93;;;8.20;99.90;;;;;;5063859;28;20108;-84
2020/12/22 06:10:42;;;;;;;11.15;6.80;;;8.20;99.90;;;;;;5060617;28;20028;-85
2020/12/22 06:13:11;;;;;;;14.38;6.68;;;8.30;99.90;;;;;;5066149;28;20024;-84
2020/12/22 06:15:37;;;;;;;11.05;6.45;;;8.40;99.90;;;;;;5064417;28;20386;-85
2020/12/22 06:18:04;;;;;;;12.00;6.13;;;8.40;99.90;;;;;;5059120;28;20414;-85
2020/12/22 06:20:30;;;;;;;9.15;5.65;;;8.40;99.90;;;;;;5057949;28;20039;-85
2020/12/22 06:23:07;;;;;;;10.45;6.18;;;8.40;99.90;;;;;;5060394;28;20478;-86
2020/12/22 06:25:36;;;;;;;8.82;5.75;;;8.40;99.90;;;;;;5049764;28;20039;-84
2020/12/22 06:28:03;;;;;;;9.23;5.93;;;8.50;99.90;;;;;;5051808;28;20033;-85
2020/12/22 06:30:34;;;;;;;9.18;5.75;;;8.50;99.90;;;;;;5053816;28;20053;-85
2020/12/22 06:33:19;;;;;;;;;;;8.50;99.90;;;;;;5053517;28;20036;-85
2020/12/22 06:36:05;;;;;;;9.02;5.78;;;8.60;99.90;;;;;;5052362;28;19908;-85
2020/12/22 06:39:02;;;;;;;9.75;6.60;;;8.60;99.90;;;;;;5048080;28;20037;-85
2020/12/22 06:41:34;;;;;;;10.05;6.80;;;8.60;99.90;;;;;;5054134;28;20111;-85
2020/12/22 06:44:19;;;;;;;;;;;8.60;99.90;;;;;;5064694;28;20487;-86
2020/12/22 06:46:48;;;;;;;13.35;8.10;;;8.60;99.90;;;;;;5052384;28;20180;-84
2020/12/22 06:49:14;;;;;;;13.70;8.98;;;8.70;99.90;;;;;;5066096;28;20561;-84
2020/12/22 06:51:42;;;;;;;13.35;9.05;;;8.70;99.90;;;;;;5057420;28;20033;-85
2020/12/22 06:54:12;;;;;;;13.13;8.63;;;8.70;99.90;;;;;;5060794;28;20423;-86
2020/12/22 06:56:43;;;;;;;13.05;9.40;;;8.70;99.90;;;;;;5060297;28;20116;-85
2020/12/22 06:59:10;;;;;;;12.37;7.70;;;8.80;99.90;;;;;;5056616;28;20486;-85
2020/12/22 07:01:44;;;;;;;10.05;6.97;;;8.80;99.90;;;;;;5049200;28;20107;-84
2020/12/22 07:04:15;;;;;;;12.50;6.53;;;8.80;99.90;;;;;;5057198;28;20079;-84
2020/12/22 07:07:02;;;;;;;9.02;6.03;;;8.80;99.90;;;;;;5057904;28;20032;-83
2020/12/22 07:09:35;;;;;;;9.75;5.32;;;8.80;99.90;;;;;;5053534;28;20373;-85
2020/12/22 07:12:11;;;;;;;7.13;4.80;;;8.90;99.90;;;;;;5046489;28;20033;-84
2020/12/22 07:14:48;;;;;;;8.43;4.72;;;8.90;99.90;;;;;;5050409;28;20104;-84
2020/12/22 07:17:18;;;;;;;8.05;4.88;;;9.00;99.90;;;;;;5064172;28;20029;-84
2020/12/22 07:19:46;;;;;;;6.10;4.17;;;9.00;99.90;;;;;;5051862;28;20037;-84
2020/12/22 07:22:14;;;;;;;8.18;4.70;;;9.10;99.90;;;;;;5051619;28;20044;-84
2020/12/22 07:24:40;;;;;;;6.85;4.22;;;9.10;99.90;;;;;;5060722;28;20032;-83
2020/12/22 07:27:07;;;;;;;8.02;4.07;;;9.10;99.90;;;;;;5051486;28;20564;-83
2020/12/22 07:29:36;;;;;;;5.20;4.07;;;9.20;99.90;;;;;;5048935;28;20112;-84
2020/12/22 07:32:03;;;;;;;5.82;3.90;;;9.30;99.90;;;;;;5050318;28;20076;-86
2020/12/22 07:34:29;;;;;;;6.55;3.90;;;9.30;99.90;;;;;;5058794;28;20492;-85
2020/12/22 07:37:09;;;;;;;6.72;3.45;;;9.30;99.90;;;;;;5060721;28;20024;-84
2020/12/22 07:39:37;;;;;;;4.38;3.45;;;9.30;99.90;;;;;;5060681;28;20512;-84
2020/12/22 07:42:11;;;;;;;6.35;3.60;;;9.40;99.90;;;;;;5061522;28;20064;-85
2020/12/22 07:44:37;;;;;;;4.22;3.55;;;9.40;99.90;;;;;;5060164;28;20052;-82
2020/12/22 07:47:02;;;;;;;6.57;3.65;;;9.50;99.90;;;;;;5047047;28;20045;-80
2020/12/22 07:49:28;;;;;;;5.07;3.47;;;9.50;99.90;;;;;;5048244;28;20537;-83
2020/12/22 07:51:53;;;;;;;5.95;3.25;;;9.50;99.90;;;;;;5049107;28;20124;-81
2020/12/22 07:54:28;;;;;;;4.50;3.50;;;9.60;99.90;;;;;;5052844;28;20048;-81
2020/12/22 07:56:58;;;;;;;5.80;3.50;;;9.50;99.90;;;;;;5050975;28;20027;-82
2020/12/22 07:59:24;;;;;;;4.43;3.20;;;9.60;99.90;;;;;;5048133;28;20025;-80
2020/12/22 08:01:53;;;;;;;3.22;2.75;;;9.60;99.90;;;;;;5062013;28;20036;-81
2020/12/22 08:04:21;;;;;;;7.60;2.97;;;9.60;99.90;;;;;;5047321;28;20395;-81
2020/12/22 08:07:18;;;;;;;4.05;2.92;;;9.70;99.90;;;;;;5046665;28;20533;-81
2020/12/22 08:09:43;;;;;;;3.63;2.72;;;9.70;99.90;;;;;;5041433;28;20487;-81
2020/12/22 08:12:10;;;;;;;4.75;2.75;;;9.80;99.90;;;;;;5057438;28;20032;-82
2020/12/22 08:14:40;;;;;;;3.67;2.72;;;9.80;99.90;;;;;;5053230;28;20035;-83
2020/12/22 08:17:13;;;;;;;2.80;2.30;;;9.80;99.90;;;;;;5055055;28;20036;-84
2020/12/22 08:19:40;;;;;;;3.83;2.20;;;9.90;99.90;;;;;;5055637;28;20059;-81
2020/12/22 08:22:05;;;;;;;6.07;2.45;;;9.90;99.90;;;;;;5052937;28;20033;-82
2020/12/22 08:24:34;;;;;;;3.10;2.33;;;9.90;99.90;;;;;;5047600;28;20556;-82
2020/12/22 08:27:00;;;;;;;5.28;2.35;;;9.90;99.90;;;;;;5044919;28;20360;-81
2020/12/22 08:29:26;;;;;;;3.90;2.30;;;10.00;99.90;;;;;;5052736;28;20529;-81
2020/12/22 08:31:55;;;;;;;3.72;2.03;;;10.00;99.90;;;;;;5056934;28;20422;-83
2020/12/22 08:34:21;;;;;;;2.42;2.00;;;10.10;99.90;;;;;;5046890;28;20032;-76
2020/12/22 08:36:47;;;;;;;1.80;1.45;;;10.10;99.90;;;;;;5047295;28;20651;-79
2020/12/22 08:39:12;;;;;;;2.33;1.73;;;10.20;99.90;;;;;;5049633;28;20036;-80
2020/12/22 08:41:40;;;;;;;1.48;1.38;;;10.10;99.90;;;;;;5046273;28;20054;-79
2020/12/22 08:44:05;;;;;;;4.43;1.80;;;10.20;99.90;;;;;;5044331;28;20036;-79
2020/12/22 08:46:31;;;;;;;1.83;1.38;;;10.20;99.90;;;;;;5050822;28;20036;-79
2020/12/22 08:49:18;;;;;;;2.38;1.30;;;10.20;99.90;;;;;;5056858;28;20550;-83
2020/12/22 08:51:45;;;;;;;2.90;1.40;;;10.30;99.90;;;;;;5048514;28;20487;-82
2020/12/22 08:54:11;;;;;;;1.38;1.20;;;10.30;99.90;;;;;;5051866;28;20444;-80
2020/12/22 08:56:37;;;;;;;2.08;1.60;;;10.40;99.90;;;;;;5059622;28;20047;-83
2020/12/22 08:59:07;;;;;;;5.63;1.35;;;10.40;99.90;;;;;;5060647;28;20511;-80
2020/12/22 09:01:41;;;;;;;1.40;1.30;;;10.40;99.90;;;;;;5058161;28;20497;-82
2020/12/22 09:04:07;;;;;;;2.72;1.35;;;10.50;99.90;;;;;;5058467;28;20028;-80
2020/12/22 09:06:55;;;;;;;1.40;1.30;;;10.50;99.90;;;;;;5049046;28;20025;-83
2020/12/22 09:09:25;;;;;;;1.98;1.42;;;10.50;99.90;;;;;;5062347;28;20079;-84
2020/12/22 09:12:01;;;;;;;1.85;1.02;;;10.50;99.90;;;;;;5056866;28;20040;-81
2020/12/22 09:14:44;;;;;;;0.90;0.90;;;10.50;99.90;;;;;;5056163;28;20061;-81
2020/12/22 09:17:11;;;;;;;1.67;1.15;;;10.60;99.90;;;;;;5050012;28;20399;-77
2020/12/22 09:19:41;;;;;;;2.88;0.90;;;10.70;99.90;;;;;;5048164;28;20033;-80
2020/12/22 09:22:08;;;;;;;1.23;0.90;;;10.70;99.90;;;;;;5056001;28;20115;-81
2020/12/22 09:24:33;;;;;;;1.15;1.00;;;10.70;99.90;;;;;;5049804;28;20023;-80
2020/12/22 09:27:03;;;;;;;0.80;0.80;;;10.80;99.90;;;;;;5051170;28;20530;-80
2020/12/22 09:29:29;;;;;;;0.73;0.70;;;10.80;99.90;;;;;;5046073;28;20022;-81
2020/12/22 09:31:56;;;;;;;2.15;0.80;;;10.80;99.90;;;;;;5051522;28;20107;-83
2020/12/22 09:34:23;;;;;;;0.95;0.80;;;10.90;99.90;;;;;;5042063;28;20313;-83
2020/12/22 09:36:50;;;;;;;2.53;0.70;;;10.90;99.90;;;;;;5051282;28;20550;-84
2020/12/22 09:39:15;;;;;;;1.60;1.08;;;10.90;99.90;;;;;;5052184;28;20490;-82
2020/12/22 09:41:42;;;;;;;0.70;0.70;;;11.00;99.90;;;;;;5058109;28;20025;-82
2020/12/22 09:44:08;;;;;;;0.70;0.70;;;11.00;99.90;;;;;;5051331;28;20024;-80
2020/12/22 09:46:34;;;;;;;1.33;0.80;;;11.10;99.90;;;;;;5056288;28;20024;-88
2020/12/22 09:48:59;;;;;;;0.60;0.60;;;11.00;99.90;;;;;;5053861;28;20552;-82
2020/12/22 09:51:25;;;;;;;0.82;0.80;;;11.10;99.90;;;;;;5053995;28;20032;-83
2020/12/22 09:53:50;;;;;;;0.75;0.75;;;11.10;99.90;;;;;;5045343;28;20066;-84
2020/12/22 09:56:22;;;;;;;0.77;0.77;;;11.10;99.90;;;;;;5048628;28;21013;-83
2020/12/22 09:58:47;;;;;;;1.17;0.80;;;11.10;99.90;;;;;;5052452;28;20474;-83
2020/12/22 10:01:13;;;;;;;4.22;0.80;;;11.10;99.90;;;;;;5048095;28;20055;-83
2020/12/22 10:03:38;;;;;;;1.52;0.93;;;11.10;99.90;;;;;;5037892;28;20028;-83
2020/12/22 10:06:04;;;;;;;1.58;0.90;;;11.20;99.90;;;;;;5044496;28;20139;-83
2020/12/22 10:08:29;;;;;;;1.58;0.82;;;11.20;99.90;;;;;;5046879;28;20021;-84
2020/12/22 10:10:55;;;;;;;1.55;0.82;;;11.20;99.90;;;;;;5059591;28;20889;-84
2020/12/22 10:13:20;;;;;;;1.83;1.02;;;11.30;99.90;;;;;;5051362;28;20024;-83
2020/12/22 10:15:45;;;;;;;0.80;0.80;;;11.30;99.90;;;;;;5045001;28;20497;-84
2020/12/22 10:18:11;;;;;;;1.17;0.80;;;11.30;99.90;;;;;;5046400;28;20144;-83
2020/12/22 10:20:37;;;;;;;0.90;0.90;;;11.30;99.90;;;;;;5045870;28;20033;-84
2020/12/22 10:23:03;;;;;;;0.82;0.82;;;11.30;99.90;;;;;;5044916;28;20021;-84
2020/12/22 10:25:29;;;;;;;0.70;0.70;;;11.30;99.90;;;;;;5043846;28;20543;-84
2020/12/22 10:27:54;;;;;;;1.70;1.10;;;11.40;99.90;;;;;;5052635;28;20107;-83
2020/12/22 10:30:20;;;;;;;0.80;0.80;;;11.40;99.90;;;;;;5047034;28;20492;-83
2020/12/22 10:32:45;;;;;;;1.10;1.00;;;11.40;99.90;;;;;;5047151;28;20028;-83
2020/12/22 10:35:11;;;;;;;0.80;0.80;;;11.40;99.90;;;;;;5049475;28;20138;-84
2020/12/22 10:37:36;;;;;;;1.13;0.80;;;11.50;99.90;;;;;;5054442;28;20024;-83
2020/12/22 10:40:03;;;;;;;0.93;0.93;;;11.50;99.90;;;;;;5047252;28;20126;-84
2020/12/22 10:42:28;;;;;;;2.35;0.90;;;11.50;99.90;;;;;;5054398;28;20078;-83
2020/12/22 10:44:54;;;;;;;1.17;0.77;;;11.50;99.90;;;;;;5051374;28;20029;-83
2020/12/22 10:47:19;;;;;;;1.48;0.93;;;11.60;99.90;;;;;;5042237;28;20033;-83
2020/12/22 10:49:45;;;;;;;1.58;1.10;;;11.60;99.90;;;;;;5054475;28;20071;-82
2020/12/22 10:52:10;;;;;;;1.17;0.82;;;11.60;99.90;;;;;;5045121;28;20171;-82
2020/12/22 10:54:36;;;;;;;1.35;1.05;;;11.60;99.90;;;;;;5053984;28;20025;-83
2020/12/22 10:57:01;;;;;;;1.38;0.82;;;11.60;99.90;;;;;;5045597;28;20054;-84
2020/12/22 10:59:27;;;;;;;2.92;1.65;;;11.60;99.90;;;;;;5048328;28;20021;-84
2020/12/22 11:01:52;;;;;;;1.48;0.90;;;11.70;99.90;;;;;;5054030;28;20641;-83
2020/12/22 11:04:18;;;;;;;2.42;1.10;;;11.70;99.90;;;;;;5047497;28;20028;-84
2020/12/22 11:07:01;;;;;;;1.67;1.08;;;11.70;99.90;;;;;;5053742;28;20032;-83
2020/12/22 11:09:26;;;;;;;2.35;1.20;;;11.80;99.90;;;;;;5050364;28;20033;-84
2020/12/22 11:11:52;;;;;;;1.15;1.05;;;11.80;99.90;;;;;;5051880;28;20021;-83
2020/12/22 11:14:17;;;;;;;1.40;0.90;;;11.90;99.90;;;;;;5052933;28;20036;-83
2020/12/22 11:16:43;;;;;;;1.30;0.88;;;11.90;99.90;;;;;;5042631;28;20032;-83
2020/12/22 11:19:08;;;;;;;1.58;1.10;;;11.90;99.90;;;;;;5048762;28;20171;-82
2020/12/22 11:21:33;;;;;;;1.38;1.27;;;11.90;99.90;;;;;;5047211;28;20054;-84
2020/12/22 11:23:59;;;;;;;1.35;1.00;;;12.00;99.90;;;;;;5046892;28;20515;-83
2020/12/22 11:26:25;;;;;;;1.08;0.88;;;12.00;99.90;;;;;;5043509;28;20033;-83
2020/12/22 11:28:51;;;;;;;1.52;1.10;;;12.10;99.90;;;;;;5056146;28;20028;-82
2020/12/22 11:31:17;;;;;;;1.13;0.80;;;12.10;99.90;;;;;;5054250;28;20162;-81
2020/12/22 11:33:43;;;;;;;1.17;1.02;;;12.20;99.90;;;;;;5046924;28;20033;-82
2020/12/22 11:36:10;;;;;;;1.10;0.95;;;12.10;99.90;;;;;;5054904;28;20541;-81
2020/12/22 11:38:36;;;;;;;1.15;1.05;;;12.20;99.90;;;;;;5056767;28;20037;-82
2020/12/22 11:41:02;;;;;;;0.90;0.90;;;12.30;99.90;;;;;;5044990;28;20027;-83
2020/12/22 11:43:27;;;;;;;1.73;1.05;;;12.30;99.90;;;;;;5044442;28;20032;-83
2020/12/22 11:45:55;;;;;;;1.40;0.95;;;12.30;99.90;;;;;;5050462;28;20070;-82
2020/12/22 11:48:24;;;;;;;2.15;1.23;;;12.40;99.90;;;;;;5041264;28;20055;-83
2020/12/22 11:50:52;;;;;;;1.08;0.98;;;12.40;99.90;;;;;;5042565;28;20044;-83
2020/12/22 11:53:18;;;;;;;1.60;1.10;;;12.40;99.90;;;;;;5041781;28;20040;-82
2020/12/22 11:55:43;;;;;;;2.70;1.20;;;12.40;99.90;;;;;;5043014;28;20158;-82
2020/12/22 11:58:08;;;;;;;0.90;0.90;;;12.40;99.90;;;;;;5044692;28;20138;-81
2020/12/22 12:00:34;;;;;;;1.20;1.10;;;12.50;99.90;;;;;;5048496;28;20479;-82
2020/12/22 12:02:59;;;;;;;2.13;1.08;;;12.50;99.90;;;;;;5050724;28;20399;-82
2020/12/22 12:05:25;;;;;;;1.30;1.10;;;12.50;99.90;;;;;;5049323;28;20024;-82
2020/12/22 12:07:50;;;;;;;2.42;1.50;;;12.60;99.90;;;;;;5048408;28;20029;-81
2020/12/22 12:10:16;;;;;;;1.48;1.10;;;12.60;99.90;;;;;;5048648;28;20044;-82
2020/12/22 12:12:41;;;;;;;2.35;1.23;;;12.60;99.90;;;;;;5054834;28;20021;-81
2020/12/22 12:15:07;;;;;;;1.35;1.17;;;12.70;99.90;;;;;;5060559;28;20540;-83
2020/12/22 12:17:32;;;;;;;1.92;1.30;;;12.70;99.90;;;;;;5044523;28;20234;-82
2020/12/22 12:19:57;;;;;;;1.33;1.23;;;12.80;99.90;;;;;;5052164;28;20540;-82
2020/12/22 12:22:23;;;;;;;2.90;1.10;;;12.80;99.90;;;;;;5048245;28;20131;-82
2020/12/22 12:24:48;;;;;;;1.48;1.20;;;12.90;99.90;;;;;;5053396;28;20483;-81
2020/12/22 12:27:14;;;;;;;1.25;1.00;;;13.00;99.90;;;;;;5047898;28;20119;-82
2020/12/22 12:29:39;;;;;;;1.40;1.20;;;13.00;99.90;;;;;;5050848;28;20017;-82
2020/12/22 12:32:05;;;;;;;3.40;0.90;;;13.00;99.90;;;;;;5047630;28;20025;-81
2020/12/22 12:34:32;;;;;;;1.75;1.05;;;13.00;99.90;;;;;;5044385;28;20407;-82
2020/12/22 12:38:17;;;;;;;3.15;1.20;;;13.10;99.90;;;;;;5044919;28;20033;-82
2020/12/22 12:40:43;;;;;;;5.43;1.13;;;13.20;99.90;;;;;;5013224;28;20128;-81
2020/12/22 12:43:08;;;;;;;1.15;1.02;;;13.30;99.90;;;;;;5048808;28;20021;-87
2020/12/22 12:45:34;;;;;;;0.95;0.85;;;13.60;99.90;;;;;;5045271;28;20029;-89
2020/12/22 12:47:59;;;;;;;1.20;1.10;;;13.70;99.90;;;;;;5054397;28;20033;-87
2020/12/22 12:50:25;;;;;;;1.15;0.93;;;13.70;99.90;;;;;;5050343;28;20051;-87